sensor_id;sensor_type;location;lat;lon;timestamp;pressure;altitude;pressure_sealevel;temperature;humidity
4836;BME280;66719;51.226;6.902;2023-11-22T00:02:17;101760.91;;;5.88;100.00
4836;BME280;66719;51.226;6.902;2023-11-22T00:04:44;101765.31;;;5.91;100.00
4836;BME280;66719;51.226;6.902;2023-11-22T00:07:10;101755.69;;;5.88;100.00
4836;BME280;66719;51.226;6.902;2023-11-22T00:09:37;101752.22;;;5.86;100.00
4836;BME280;66719;51.226;6.902;2023-11-22T00:12:04;101747.88;;;5.85;100.00
4836;BME280;66719;51.226;6.902;2023-11-22T00:14:30;101750.47;;;5.85;100.00
4836;BME280;66719;51.226;6.902;2023-11-22T00:16:57;101753.06;;;5.85;100.00
4836;BME280;66719;51.226;6.902;2023-11-22T00:19:24;101755.63;;;5.82;100.00
4836;BME280;66719;51.226;6.902;2023-11-22T00:21:50;101753.06;;;5.85;100.00
4836;BME280;66719;51.226;6.902;2023-11-22T00:24:17;101749.50;;;5.82;100.00
4836;BME280;66719;51.226;6.902;2023-11-22T00:26:44;101751.13;;;5.74;100.00
4836;BME280;66719;51.226;6.902;2023-11-22T00:29:11;101756.28;;;5.72;100.00
4836;BME280;66719;51.226;6.902;2023-11-22T00:31:38;101759.66;;;5.66;100.00
4836;BME280;66719;51.226;6.902;2023-11-22T00:34:04;101754.50;;;5.70;100.00
4836;BME280;66719;51.226;6.902;2023-11-22T00:36:31;101759.53;;;5.60;100.00
4836;BME280;66719;51.226;6.902;2023-11-22T00:38:57;101762.16;;;5.62;100.00
4836;BME280;66719;51.226;6.902;2023-11-22T00:41:30;101757.84;;;5.64;100.00
4836;BME280;66719;51.226;6.902;2023-11-22T00:43:56;101761.25;;;5.60;100.00
4836;BME280;66719;51.226;6.902;2023-11-22T00:46:23;101759.56;;;5.62;100.00
4836;BME280;66719;51.226;6.902;2023-11-22T00:48:49;101758.66;;;5.60;100.00
4836;BME280;66719;51.226;6.902;2023-11-22T00:51:16;101762.03;;;5.56;100.00
4836;BME280;66719;51.226;6.902;2023-11-22T00:53:43;101763.72;;;5.54;100.00
4836;BME280;66719;51.226;6.902;2023-11-22T00:56:09;101758.50;;;5.52;100.00
4836;BME280;66719;51.226;6.902;2023-11-22T00:58:36;101772.19;;;5.44;100.00
4836;BME280;66719;51.226;6.902;2023-11-22T01:01:03;101775.53;;;5.38;100.00
4836;BME280;66719;51.226;6.902;2023-11-22T01:03:29;101775.47;;;5.33;100.00
4836;BME280;66719;51.226;6.902;2023-11-22T01:05:56;101775.50;;;5.36;100.00
4836;BME280;66719;51.226;6.902;2023-11-22T01:08:22;101772.81;;;5.30;100.00
4836;BME280;66719;51.226;6.902;2023-11-22T01:10:49;101773.63;;;5.29;100.00
4836;BME280;66719;51.226;6.902;2023-11-22T01:13:15;101779.66;;;5.27;100.00
4836;BME280;66719;51.226;6.902;2023-11-22T01:15:42;101791.00;;;5.30;100.00
4836;BME280;66719;51.226;6.902;2023-11-22T01:18:10;101790.22;;;5.36;100.00
4836;BME280;66719;51.226;6.902;2023-11-22T01:20:37;101794.47;;;5.31;100.00
4836;BME280;66719;51.226;6.902;2023-11-22T01:23:04;101794.47;;;5.32;100.00
4836;BME280;66719;51.226;6.902;2023-11-22T01:25:30;101799.56;;;5.28;100.00
4836;BME280;66719;51.226;6.902;2023-11-22T01:27:57;101797.78;;;5.25;100.00
4836;BME280;66719;51.226;6.902;2023-11-22T01:30:23;101806.41;;;5.23;100.00
4836;BME280;66719;51.226;6.902;2023-11-22T01:32:50;101798.63;;;5.23;100.00
4836;BME280;66719;51.226;6.902;2023-11-22T01:35:17;101794.31;;;5.25;100.00
4836;BME280;66719;51.226;6.902;2023-11-22T01:37:43;101810.59;;;5.16;100.00
4836;BME280;66719;51.226;6.902;2023-11-22T01:40:10;101814.78;;;5.11;100.00
4836;BME280;66719;51.226;6.902;2023-11-22T01:42:37;101823.97;;;4.95;100.00
4836;BME280;66719;51.226;6.902;2023-11-22T01:45:07;101828.34;;;4.98;100.00
4836;BME280;66719;51.226;6.902;2023-11-22T01:47:35;101828.41;;;5.01;100.00
4836;BME280;66719;51.226;6.902;2023-11-22T01:50:03;101839.78;;;5.06;100.00
4836;BME280;66719;51.226;6.902;2023-11-22T01:52:31;101841.53;;;5.07;100.00
4836;BME280;66719;51.226;6.902;2023-11-22T01:55:00;101845.81;;;5.05;100.00
4836;BME280;66719;51.226;6.902;2023-11-22T01:57:32;101840.63;;;5.05;100.00
4836;BME280;66719;51.226;6.902;2023-11-22T02:00:03;101843.25;;;5.06;100.00
4836;BME280;66719;51.226;6.902;2023-11-22T02:02:30;101844.19;;;5.10;100.00
4836;BME280;66719;51.226;6.902;2023-11-22T02:04:58;101853.53;;;5.03;100.00
4836;BME280;66719;51.226;6.902;2023-11-22T02:07:27;101864.81;;;5.04;100.00
4836;BME280;66719;51.226;6.902;2023-11-22T02:09:54;101872.56;;;5.02;100.00
4836;BME280;66719;51.226;6.902;2023-11-22T02:12:20;101878.63;;;5.03;100.00
4836;BME280;66719;51.226;6.902;2023-11-22T02:14:47;101880.44;;;5.05;100.00
4836;BME280;66719;51.226;6.902;2023-11-22T02:17:14;101887.19;;;4.99;100.00
4836;BME280;66719;51.226;6.902;2023-11-22T02:19:40;101887.19;;;4.99;100.00
4836;BME280;66719;51.226;6.902;2023-11-22T02:22:07;101889.81;;;5.00;100.00
4836;BME280;66719;51.226;6.902;2023-11-22T02:24:34;101893.00;;;4.89;100.00
4836;BME280;66719;51.226;6.902;2023-11-22T02:27:00;101893.94;;;4.92;100.00
4836;BME280;66719;51.226;6.902;2023-11-22T02:29:27;101880.09;;;4.92;100.00
4836;BME280;66719;51.226;6.902;2023-11-22T02:31:55;101869.72;;;4.92;100.00
4836;BME280;66719;51.226;6.902;2023-11-22T02:34:21;101871.34;;;4.87;100.00
4836;BME280;66719;51.226;6.902;2023-11-22T02:36:48;101872.94;;;4.81;100.00
4836;BME280;66719;51.226;6.902;2023-11-22T02:39:54;101883.25;;;4.78;100.00
4836;BME280;66719;51.226;6.902;2023-11-22T02:42:17;101874.59;;;4.78;100.00
4836;BME280;66719;51.226;6.902;2023-11-22T02:44:44;101866.84;;;4.79;100.00
4836;BME280;66719;51.226;6.902;2023-11-22T02:47:11;101866.91;;;4.82;100.00
4836;BME280;66719;51.226;6.902;2023-11-22T02:49:37;101868.56;;;4.79;100.00
4836;BME280;66719;51.226;6.902;2023-11-22T02:52:05;101860.47;;;4.67;100.00
4836;BME280;66719;51.226;6.902;2023-11-22T02:54:32;101874.19;;;4.61;100.00
4836;BME280;66719;51.226;6.902;2023-11-22T02:56:58;101866.25;;;4.55;100.00
4836;BME280;66719;51.226;6.902;2023-11-22T02:59:26;101870.63;;;4.58;100.00
4836;BME280;66719;51.226;6.902;2023-11-22T03:01:53;101867.88;;;4.51;100.00
4836;BME280;66719;51.226;6.902;2023-11-22T03:04:20;101866.94;;;4.48;100.00
4836;BME280;66719;51.226;6.902;2023-11-22T03:06:46;101875.56;;;4.47;100.00
4836;BME280;66719;51.226;6.902;2023-11-22T03:09:13;101870.41;;;4.48;100.00
4836;BME280;66719;51.226;6.902;2023-11-22T03:11:40;101883.03;;;4.35;100.00
4836;BME280;66719;51.226;6.902;2023-11-22T03:14:07;101890.81;;;4.35;100.00
4836;BME280;66719;51.226;6.902;2023-11-22T03:16:33;101905.59;;;4.39;100.00
4836;BME280;66719;51.226;6.902;2023-11-22T03:19:00;101909.25;;;4.47;100.00
4836;BME280;66719;51.226;6.902;2023-11-22T03:21:28;101910.06;;;4.44;100.00
4836;BME280;66719;51.226;6.902;2023-11-22T03:23:55;101905.78;;;4.46;100.00
4836;BME280;66719;51.226;6.902;2023-11-22T03:26:21;101907.34;;;4.40;100.00
4836;BME280;66719;51.226;6.902;2023-11-22T03:28:48;101913.88;;;4.25;100.00
4836;BME280;66719;51.226;6.902;2023-11-22T03:31:14;101920.91;;;4.30;100.00
4836;BME280;66719;51.226;6.902;2023-11-22T03:33:41;101924.34;;;4.29;100.00
4836;BME280;66719;51.226;6.902;2023-11-22T03:36:07;101920.13;;;4.34;100.00
4836;BME280;66719;51.226;6.902;2023-11-22T03:38:34;101916.63;;;4.32;100.00
4836;BME280;66719;51.226;6.902;2023-11-22T03:41:00;101916.44;;;4.24;100.00
4836;BME280;66719;51.226;6.902;2023-11-22T03:43:27;101916.44;;;4.24;100.00
4836;BME280;66719;51.226;6.902;2023-11-22T03:45:54;101917.03;;;4.14;100.00
4836;BME280;66719;51.226;6.902;2023-11-22T03:48:21;101927.38;;;4.14;100.00
4836;BME280;66719;51.226;6.902;2023-11-22T03:50:49;101927.41;;;4.15;100.00
4836;BME280;66719;51.226;6.902;2023-11-22T03:53:16;101930.19;;;4.21;100.00
4836;BME280;66719;51.226;6.902;2023-11-22T03:55:42;101929.38;;;4.24;100.00
4836;BME280;66719;51.226;6.902;2023-11-22T03:58:09;101939.78;;;4.25;100.00
4836;BME280;66719;51.226;6.902;2023-11-22T04:00:36;101939.69;;;4.21;100.00
4836;BME280;66719;51.226;6.902;2023-11-22T04:03:02;101945.81;;;4.24;100.00
4836;BME280;66719;51.226;6.902;2023-11-22T04:05:29;101944.78;;;4.18;100.00
4836;BME280;66719;51.226;6.902;2023-11-22T04:07:56;101950.75;;;4.15;100.00
4836;BME280;66719;51.226;6.902;2023-11-22T04:10:23;101946.31;;;4.11;100.00
4836;BME280;66719;51.226;6.902;2023-11-22T04:12:49;101956.25;;;3.96;100.00
4836;BME280;66719;51.226;6.902;2023-11-22T04:15:16;101959.78;;;4.00;100.00
4836;BME280;66719;51.226;6.902;2023-11-22T04:17:43;101964.88;;;3.95;100.00
4836;BME280;66719;51.226;6.902;2023-11-22T04:20:10;101971.88;;;3.99;100.00
4836;BME280;66719;51.226;6.902;2023-11-22T04:22:38;101972.81;;;4.01;100.00
4836;BME280;66719;51.226;6.902;2023-11-22T04:25:05;101977.06;;;3.99;100.00
4836;BME280;66719;51.226;6.902;2023-11-22T04:27:33;101985.63;;;3.96;100.00
4836;BME280;66719;51.226;6.902;2023-11-22T04:29:59;101996.00;;;3.96;100.00
4836;BME280;66719;51.226;6.902;2023-11-22T04:32:26;101993.63;;;4.04;100.00
4836;BME280;66719;51.226;6.902;2023-11-22T04:34:52;101994.44;;;4.02;100.00
4836;BME280;66719;51.226;6.902;2023-11-22T04:37:19;101992.78;;;4.05;100.00
4836;BME280;66719;51.226;6.902;2023-11-22T04:39:45;101987.69;;;4.08;100.00
4836;BME280;66719;51.226;6.902;2023-11-22T04:42:16;101989.28;;;4.03;100.00
4836;BME280;66719;51.226;6.902;2023-11-22T04:44:44;101982.38;;;4.04;100.00
4836;BME280;66719;51.226;6.902;2023-11-22T04:47:10;101988.44;;;4.04;100.00
4836;BME280;66719;51.226;6.902;2023-11-22T04:49:37;101984.97;;;4.04;100.00
4836;BME280;66719;51.226;6.902;2023-11-22T04:52:04;101984.22;;;4.08;100.00
4836;BME280;66719;51.226;6.902;2023-11-22T04:54:30;101978.91;;;4.03;100.00
4836;BME280;66719;51.226;6.902;2023-11-22T04:56:58;101979.59;;;3.97;100.00
4836;BME280;66719;51.226;6.902;2023-11-22T04:59:24;101983.00;;;3.95;100.00
4836;BME280;66719;51.226;6.902;2023-11-22T05:01:51;101986.44;;;3.94;100.00
4836;BME280;66719;51.226;6.902;2023-11-22T05:04:18;101984.56;;;3.90;100.00
4836;BME280;66719;51.226;6.902;2023-11-22T05:06:44;101982.78;;;3.87;100.00
4836;BME280;66719;51.226;6.902;2023-11-22T05:09:12;101988.00;;;3.89;100.00
4836;BME280;66719;51.226;6.902;2023-11-22T05:11:40;101993.31;;;3.93;100.00
4836;BME280;66719;51.226;6.902;2023-11-22T05:14:11;101995.81;;;3.90;100.00
4836;BME280;66719;51.226;6.902;2023-11-22T05:16:37;102001.59;;;3.82;100.00
4836;BME280;66719;51.226;6.902;2023-11-22T05:19:04;101988.59;;;3.80;100.00
4836;BME280;66719;51.226;6.902;2023-11-22T05:21:32;101996.38;;;3.80;100.00
4836;BME280;66719;51.226;6.902;2023-11-22T05:23:58;102009.31;;;3.80;100.00
4836;BME280;66719;51.226;6.902;2023-11-22T05:26:25;102015.50;;;3.84;100.00
4836;BME280;66719;51.226;6.902;2023-11-22T05:28:53;102006.91;;;3.86;100.00
4836;BME280;66719;51.226;6.902;2023-11-22T05:31:20;102013.59;;;3.78;100.00
4836;BME280;66719;51.226;6.902;2023-11-22T05:33:47;102026.69;;;3.83;100.00
4836;BME280;66719;51.226;6.902;2023-11-22T05:36:13;102038.75;;;3.82;100.00
4836;BME280;66719;51.226;6.902;2023-11-22T05:38:42;102042.03;;;3.77;100.00
4836;BME280;66719;51.226;6.902;2023-11-22T05:41:09;102038.25;;;3.65;100.00
4836;BME280;66719;51.226;6.902;2023-11-22T05:43:36;102047.66;;;3.63;100.00
4836;BME280;66719;51.226;6.902;2023-11-22T05:46:03;102055.53;;;3.66;100.00
4836;BME280;66719;51.226;6.902;2023-11-22T05:48:30;102049.50;;;3.67;100.00
4836;BME280;66719;51.226;6.902;2023-11-22T05:50:56;102050.94;;;3.58;100.00
4836;BME280;66719;51.226;6.902;2023-11-22T05:53:23;102037.28;;;3.63;100.00
4836;BME280;66719;51.226;6.902;2023-11-22T05:55:50;102040.81;;;3.65;100.00
4836;BME280;66719;51.226;6.902;2023-11-22T05:58:17;102046.75;;;3.63;100.00
4836;BME280;66719;51.226;6.902;2023-11-22T06:00:47;102051.06;;;3.62;100.00
4836;BME280;66719;51.226;6.902;2023-11-22T06:03:14;102048.41;;;3.59;100.00
4836;BME280;66719;51.226;6.902;2023-11-22T06:05:40;102054.25;;;3.54;100.00
4836;BME280;66719;51.226;6.902;2023-11-22T06:08:07;102052.53;;;3.54;100.00
4836;BME280;66719;51.226;6.902;2023-11-22T06:10:35;102053.38;;;3.53;100.00
4836;BME280;66719;51.226;6.902;2023-11-22T06:13:02;102048.91;;;3.48;100.00
4836;BME280;66719;51.226;6.902;2023-11-22T06:15:28;102040.88;;;3.40;100.00
4836;BME280;66719;51.226;6.902;2023-11-22T06:17:58;102035.63;;;3.38;100.00
4836;BME280;66719;51.226;6.902;2023-11-22T06:20:24;102048.53;;;3.37;100.00
4836;BME280;66719;51.226;6.902;2023-11-22T06:22:53;102051.16;;;3.38;100.00
4836;BME280;66719;51.226;6.902;2023-11-22T06:25:20;102048.47;;;3.35;100.00
4836;BME280;66719;51.226;6.902;2023-11-22T06:27:46;102056.34;;;3.38;100.00
4836;BME280;66719;51.226;6.902;2023-11-22T06:30:13;102061.22;;;3.29;100.00
4836;BME280;66719;51.226;6.902;2023-11-22T06:32:40;102057.34;;;3.17;100.00
4836;BME280;66719;51.226;6.902;2023-11-22T06:35:09;102061.59;;;3.15;100.00
4836;BME280;66719;51.226;6.902;2023-11-22T06:37:38;102074.38;;;3.10;100.00
4836;BME280;66719;51.226;6.902;2023-11-22T06:40:04;102075.06;;;3.04;100.00
4836;BME280;66719;51.226;6.902;2023-11-22T06:42:32;102069.75;;;3.01;100.00
4836;BME280;66719;51.226;6.902;2023-11-22T06:45:00;102074.06;;;3.01;100.00
4836;BME280;66719;51.226;6.902;2023-11-22T06:47:27;102082.03;;;3.07;100.00
4836;BME280;66719;51.226;6.902;2023-11-22T06:49:54;102094.28;;;3.12;100.00
4836;BME280;66719;51.226;6.902;2023-11-22T06:52:20;102086.59;;;3.14;100.00
4836;BME280;66719;51.226;6.902;2023-11-22T06:54:47;102091.00;;;3.17;100.00
4836;BME280;66719;51.226;6.902;2023-11-22T06:57:13;102089.81;;;3.07;100.00
4836;BME280;66719;51.226;6.902;2023-11-22T06:59:40;102088.91;;;3.06;100.00
4836;BME280;66719;51.226;6.902;2023-11-22T07:02:06;102082.69;;;3.01;100.00
4836;BME280;66719;51.226;6.902;2023-11-22T07:04:34;102086.13;;;3.00;100.00
4836;BME280;66719;51.226;6.902;2023-11-22T07:07:01;102088.97;;;3.08;100.00
4836;BME280;66719;51.226;6.902;2023-11-22T07:09:28;102088.88;;;3.05;100.00
4836;BME280;66719;51.226;6.902;2023-11-22T07:11:56;102108.63;;;3.03;100.00
4836;BME280;66719;51.226;6.902;2023-11-22T07:14:24;102110.19;;;2.98;100.00
4836;BME280;66719;51.226;6.902;2023-11-22T07:16:51;102114.97;;;2.87;100.00
4836;BME280;66719;51.226;6.902;2023-11-22T07:19:20;102117.44;;;2.84;100.00
4836;BME280;66719;51.226;6.902;2023-11-22T07:21:46;102117.94;;;2.74;100.00
4836;BME280;66719;51.226;6.902;2023-11-22T07:24:15;102124.88;;;2.75;100.00
4836;BME280;66719;51.226;6.902;2023-11-22T07:26:42;102130.09;;;2.76;100.00
4836;BME280;66719;51.226;6.902;2023-11-22T07:29:09;102136.47;;;2.86;100.00
4836;BME280;66719;51.226;6.902;2023-11-22T07:31:36;102136.47;;;2.86;100.00
4836;BME280;66719;51.226;6.902;2023-11-22T07:34:02;102148.38;;;2.81;100.00
4836;BME280;66719;51.226;6.902;2023-11-22T07:36:29;102169.75;;;2.77;100.00
4836;BME280;66719;51.226;6.902;2023-11-22T07:38:57;102169.88;;;2.80;100.00
4836;BME280;66719;51.226;6.902;2023-11-22T07:41:23;102172.56;;;2.83;100.00
4836;BME280;66719;51.226;6.902;2023-11-22T07:43:50;102170.91;;;2.85;100.00
4836;BME280;66719;51.226;6.902;2023-11-22T07:46:16;102171.03;;;2.88;100.00
4836;BME280;66719;51.226;6.902;2023-11-22T07:48:45;102170.03;;;2.84;100.00
4836;BME280;66719;51.226;6.902;2023-11-22T07:51:13;102155.53;;;2.88;100.00
4836;BME280;66719;51.226;6.902;2023-11-22T07:53:43;102159.16;;;2.93;100.00
4836;BME280;66719;51.226;6.902;2023-11-22T07:56:10;102155.63;;;2.91;100.00
4836;BME280;66719;51.226;6.902;2023-11-22T07:58:38;102155.19;;;3.03;100.00
4836;BME280;66719;51.226;6.902;2023-11-22T08:01:05;102147.38;;;3.01;100.00
4836;BME280;66719;51.226;6.902;2023-11-22T08:03:32;102139.59;;;3.01;100.00
4836;BME280;66719;51.226;6.902;2023-11-22T08:06:02;102131.91;;;3.03;100.00
4836;BME280;66719;51.226;6.902;2023-11-22T08:08:29;102128.38;;;3.01;100.00
4836;BME280;66719;51.226;6.902;2023-11-22T08:10:56;102124.97;;;3.02;100.00
4836;BME280;66719;51.226;6.902;2023-11-22T08:13:23;102127.78;;;3.08;100.00
4836;BME280;66719;51.226;6.902;2023-11-22T08:15:49;102139.00;;;3.08;100.00
4836;BME280;66719;51.226;6.902;2023-11-22T08:18:16;102127.81;;;3.09;100.00
4836;BME280;66719;51.226;6.902;2023-11-22T08:20:43;102113.31;;;3.13;100.00
4836;BME280;66719;51.226;6.902;2023-11-22T08:23:10;102116.03;;;3.18;100.00
4836;BME280;66719;51.226;6.902;2023-11-22T08:25:39;102128.91;;;3.16;100.00
4836;BME280;66719;51.226;6.902;2023-11-22T08:28:09;102122.81;;;3.14;100.00
4836;BME280;66719;51.226;6.902;2023-11-22T08:30:36;102135.63;;;3.11;100.00
4836;BME280;66719;51.226;6.902;2023-11-22T08:33:03;102146.16;;;3.16;100.00
4836;BME280;66719;51.226;6.902;2023-11-22T08:35:30;102139.22;;;3.15;100.00
4836;BME280;66719;51.226;6.902;2023-11-22T08:37:57;102149.66;;;3.18;100.00
4836;BME280;66719;51.226;6.902;2023-11-22T08:40:24;102146.28;;;3.20;100.00
4836;BME280;66719;51.226;6.902;2023-11-22T08:42:52;102161.91;;;3.22;100.00
4836;BME280;66719;51.226;6.902;2023-11-22T08:45:19;102164.63;;;3.26;100.00
4836;BME280;66719;51.226;6.902;2023-11-22T08:47:46;102182.78;;;3.28;100.00
4836;BME280;66719;51.226;6.902;2023-11-22T08:50:13;102197.72;;;3.35;100.00
4836;BME280;66719;51.226;6.902;2023-11-22T08:52:42;102200.63;;;3.44;100.00
4836;BME280;66719;51.226;6.902;2023-11-22T08:55:12;102212.84;;;3.48;100.00
4836;BME280;66719;51.226;6.902;2023-11-22T08:57:41;102222.25;;;3.46;100.00
4836;BME280;66719;51.226;6.902;2023-11-22T09:00:08;102220.63;;;3.48;100.00
4836;BME280;66719;51.226;6.902;2023-11-22T09:02:38;102232.00;;;3.53;100.00
4836;BME280;66719;51.226;6.902;2023-11-22T09:05:07;102237.97;;;3.51;100.00
4836;BME280;66719;51.226;6.902;2023-11-22T09:07:39;102222.53;;;3.54;100.00
4836;BME280;66719;51.226;6.902;2023-11-22T09:10:06;102212.34;;;3.58;100.00
4836;BME280;66719;51.226;6.902;2023-11-22T09:12:40;102207.44;;;3.66;100.00
4836;BME280;66719;51.226;6.902;2023-11-22T09:15:12;102208.44;;;3.71;100.00
4836;BME280;66719;51.226;6.902;2023-11-22T09:17:41;102213.53;;;3.68;100.00
4836;BME280;66719;51.226;6.902;2023-11-22T09:20:13;102214.47;;;3.70;100.00
4836;BME280;66719;51.226;6.902;2023-11-22T09:22:43;102213.84;;;3.77;100.00
4836;BME280;66719;51.226;6.902;2023-11-22T09:25:17;102216.69;;;3.85;100.00
4836;BME280;66719;51.226;6.902;2023-11-22T09:27:49;102216.13;;;3.93;100.00
4836;BME280;66719;51.226;6.902;2023-11-22T09:30:22;102210.94;;;3.93;100.00
4836;BME280;66719;51.226;6.902;2023-11-22T09:33:03;102224.13;;;4.01;100.00
4836;BME280;66719;51.226;6.902;2023-11-22T09:35:31;102227.66;;;4.03;100.00
4836;BME280;66719;51.226;6.902;2023-11-22T09:37:59;102222.38;;;4.00;100.00
4836;BME280;66719;51.226;6.902;2023-11-22T09:40:26;102206.00;;;4.01;100.00
4836;BME280;66719;51.226;6.902;2023-11-22T09:42:55;102204.38;;;4.05;100.00
4836;BME280;66719;51.226;6.902;2023-11-22T09:45:24;102197.53;;;4.07;100.00
4836;BME280;66719;51.226;6.902;2023-11-22T09:47:52;102197.69;;;4.11;100.00
4836;BME280;66719;51.226;6.902;2023-11-22T09:50:25;102202.13;;;4.15;100.00
4836;BME280;66719;51.226;6.902;2023-11-22T09:52:55;102205.72;;;4.19;100.00
4836;BME280;66719;51.226;6.902;2023-11-22T09:55:28;102204.06;;;4.22;100.00
4836;BME280;66719;51.226;6.902;2023-11-22T09:57:58;102216.31;;;4.27;100.00
4836;BME280;66719;51.226;6.902;2023-11-22T10:00:28;102217.13;;;4.25;100.00
4836;BME280;66719;51.226;6.902;2023-11-22T10:02:57;102219.78;;;4.27;100.00
4836;BME280;66719;51.226;6.902;2023-11-22T10:05:24;102224.19;;;4.30;100.00
4836;BME280;66719;51.226;6.902;2023-11-22T10:07:51;102223.53;;;4.37;100.00
4836;BME280;66719;51.226;6.902;2023-11-22T10:10:19;102222.03;;;4.43;100.00
4836;BME280;66719;51.226;6.902;2023-11-22T10:12:48;102218.59;;;4.44;100.00
4836;BME280;66719;51.226;6.902;2023-11-22T10:15:16;102227.38;;;4.49;100.00
4836;BME280;66719;51.226;6.902;2023-11-22T10:17:54;102227.38;;;4.49;100.00
4836;BME280;66719;51.226;6.902;2023-11-22T10:20:25;102219.56;;;4.48;100.00
4836;BME280;66719;51.226;6.902;2023-11-22T10:23:01;102218.78;;;4.50;100.00
4836;BME280;66719;51.226;6.902;2023-11-22T10:25:28;102224.91;;;4.52;100.00
4836;BME280;66719;51.226;6.902;2023-11-22T10:27:55;102222.44;;;4.57;100.00
4836;BME280;66719;51.226;6.902;2023-11-22T10:30:22;102218.13;;;4.58;100.00
4836;BME280;66719;51.226;6.902;2023-11-22T10:32:48;102229.50;;;4.61;100.00
4836;BME280;66719;51.226;6.902;2023-11-22T10:35:16;102234.75;;;4.64;100.00
4836;BME280;66719;51.226;6.902;2023-11-22T10:37:43;102234.84;;;4.67;100.00
4836;BME280;66719;51.226;6.902;2023-11-22T10:40:12;102227.06;;;4.67;100.00
4836;BME280;66719;51.226;6.902;2023-11-22T10:42:42;102224.34;;;4.63;100.00
4836;BME280;66719;51.226;6.902;2023-11-22T10:45:10;102224.44;;;4.66;100.00
4836;BME280;66719;51.226;6.902;2023-11-22T10:47:37;102226.19;;;4.67;100.00
4836;BME280;66719;51.226;6.902;2023-11-22T10:50:06;102228.94;;;4.71;100.00
4836;BME280;66719;51.226;6.902;2023-11-22T10:52:35;102235.88;;;4.72;100.00
4836;BME280;66719;51.226;6.902;2023-11-22T10:55:05;102233.34;;;4.75;100.00
4836;BME280;66719;51.226;6.902;2023-11-22T10:57:44;102235.97;;;4.75;100.00
4836;BME280;66719;51.226;6.902;2023-11-22T11:00:15;102232.44;;;4.73;100.00
4836;BME280;66719;51.226;6.902;2023-11-22T11:02:46;102241.16;;;4.75;100.00
4836;BME280;66719;51.226;6.902;2023-11-22T11:05:18;102239.38;;;4.74;100.00
4836;BME280;66719;51.226;6.902;2023-11-22T11:08:00;102239.38;;;4.74;100.00
4836;BME280;66719;51.226;6.902;2023-11-22T11:10:30;102229.06;;;4.76;100.00
4836;BME280;66719;51.226;6.902;2023-11-22T11:12:57;102224.81;;;4.78;100.00
4836;BME280;66719;51.226;6.902;2023-11-22T11:15:24;102222.28;;;4.81;100.00
4836;BME280;66719;51.226;6.902;2023-11-22T11:17:51;102231.00;;;4.83;100.00
4836;BME280;66719;51.226;6.902;2023-11-22T11:20:18;102216.31;;;4.83;100.00
4836;BME280;66719;51.226;6.902;2023-11-22T11:22:49;102211.16;;;4.85;100.00
4836;BME280;66719;51.226;6.902;2023-11-22T11:25:20;102216.50;;;4.90;100.00
4836;BME280;66719;51.226;6.902;2023-11-22T11:27:57;102213.94;;;4.91;100.00
4836;BME280;66719;51.226;6.902;2023-11-22T11:33:00;102205.44;;;4.95;100.00
4836;BME280;66719;51.226;6.902;2023-11-22T11:36:00;102204.25;;;4.86;100.00
4836;BME280;66719;51.226;6.902;2023-11-22T11:38:32;102199.06;;;4.86;100.00
4836;BME280;66719;51.226;6.902;2023-11-22T11:41:10;102198.25;;;4.87;100.00
4836;BME280;66719;51.226;6.902;2023-11-22T11:43:44;102193.09;;;4.88;100.00
4836;BME280;66719;51.226;6.902;2023-11-22T11:46:17;102199.25;;;4.92;100.00
4836;BME280;66719;51.226;6.902;2023-11-22T11:48:47;102199.28;;;4.93;100.00
4836;BME280;66719;51.226;6.902;2023-11-22T11:51:15;102191.72;;;5.01;100.00
4836;BME280;66719;51.226;6.902;2023-11-22T11:53:42;102216.06;;;5.04;100.00
4836;BME280;66719;51.226;6.902;2023-11-22T11:56:10;102222.13;;;5.05;100.00
4836;BME280;66719;51.226;6.902;2023-11-22T11:58:37;102223.13;;;5.10;100.00
4836;BME280;66719;51.226;6.902;2023-11-22T12:01:05;102214.50;;;5.11;100.00
4836;BME280;66719;51.226;6.902;2023-11-22T12:03:32;102198.84;;;5.08;100.00
4836;BME280;66719;51.226;6.902;2023-11-22T12:05:59;102187.56;;;5.06;100.00
4836;BME280;66719;51.226;6.902;2023-11-22T12:08:26;102187.63;;;5.09;100.00
4836;BME280;66719;51.226;6.902;2023-11-22T12:10:56;102163.47;;;5.11;100.00
4836;BME280;66719;51.226;6.902;2023-11-22T12:13:25;102151.31;;;5.10;100.00
4836;BME280;66719;51.226;6.902;2023-11-22T12:15:52;102133.94;;;5.06;100.00
4836;BME280;66719;51.226;6.902;2023-11-22T12:18:23;102130.25;;;4.98;100.00
4836;BME280;66719;51.226;6.902;2023-11-22T12:20:56;102118.81;;;4.92;100.00
4836;BME280;66719;51.226;6.902;2023-11-22T12:23:24;102103.94;;;4.86;100.00
4836;BME280;66719;51.226;6.902;2023-11-22T12:25:56;102101.25;;;4.81;100.00
4836;BME280;66719;51.226;6.902;2023-11-22T12:28:26;102098.59;;;4.80;100.00
4836;BME280;66719;51.226;6.902;2023-11-22T12:30:53;102085.69;;;4.81;100.00
4836;BME280;66719;51.226;6.902;2023-11-22T12:33:20;102079.72;;;4.86;100.00
4836;BME280;66719;51.226;6.902;2023-11-22T12:35:47;102081.53;;;4.88;100.00
4836;BME280;66719;51.226;6.902;2023-11-22T12:38:15;102074.59;;;4.87;100.00
4836;BME280;66719;51.226;6.902;2023-11-22T12:40:46;102069.41;;;4.87;100.00
4836;BME280;66719;51.226;6.902;2023-11-22T12:43:15;102071.94;;;4.86;100.00
4836;BME280;66719;51.226;6.902;2023-11-22T12:45:42;102061.50;;;4.84;100.00
4836;BME280;66719;51.226;6.902;2023-11-22T12:48:24;102059.84;;;4.86;100.00
4836;BME280;66719;51.226;6.902;2023-11-22T12:50:52;102065.16;;;4.91;100.00
4836;BME280;66719;51.226;6.902;2023-11-22T12:53:20;102071.19;;;4.90;100.00
4836;BME280;66719;51.226;6.902;2023-11-22T12:55:49;102060.91;;;4.94;100.00
4836;BME280;66719;51.226;6.902;2023-11-22T12:58:16;102058.28;;;4.93;100.00
4836;BME280;66719;51.226;6.902;2023-11-22T13:00:45;102058.47;;;4.99;100.00
4836;BME280;66719;51.226;6.902;2023-11-22T13:03:12;102069.06;;;5.08;100.00
4836;BME280;66719;51.226;6.902;2023-11-22T13:05:44;102068.81;;;5.32;100.00
4836;BME280;66719;51.226;6.902;2023-11-22T13:08:12;102061.50;;;5.52;100.00